createdAt,value
2023-05-16T00:02:35.211Z,16.20
2023-05-16T00:05:29.538Z,16.30
2023-05-16T00:08:24.137Z,16.30
2023-05-16T00:11:19.539Z,16.40
2023-05-16T00:14:13.740Z,16.50
2023-05-16T00:17:12.998Z,16.60
2023-05-16T00:20:13.300Z,16.70
2023-05-16T00:23:07.490Z,16.80
2023-05-16T00:26:01.685Z,16.90
2023-05-16T00:28:55.900Z,17.00
2023-05-16T00:31:50.287Z,17.10
2023-05-16T00:34:44.472Z,17.20
2023-05-16T00:37:39.833Z,17.30
2023-05-16T00:40:34.523Z,17.40
2023-05-16T00:43:28.768Z,17.50
2023-05-16T00:46:23.001Z,17.60
2023-05-16T00:49:17.301Z,17.70
2023-05-16T00:52:11.819Z,17.70
2023-05-16T00:55:07.020Z,17.80
2023-05-16T00:58:01.648Z,17.80
2023-05-16T01:00:56.154Z,17.90
2023-05-16T01:03:51.428Z,18.00
2023-05-16T01:06:47.209Z,18.00
2023-05-16T01:09:42.009Z,18.10
2023-05-16T01:12:58.035Z,18.20
2023-05-16T01:16:18.238Z,18.20
2023-05-16T01:19:40.184Z,18.30
2023-05-16T01:22:53.215Z,18.50
2023-05-16T01:25:47.682Z,18.50
2023-05-16T01:28:42.600Z,18.60
2023-05-16T01:31:37.033Z,18.70
2023-05-16T01:34:31.181Z,18.60
2023-05-16T01:37:38.749Z,18.60
2023-05-16T01:40:51.297Z,18.50
2023-05-16T01:43:53.018Z,18.60
2023-05-16T01:46:49.972Z,18.60
2023-05-16T01:50:10.456Z,18.60
2023-05-16T01:53:22.329Z,18.60
2023-05-16T01:56:18.672Z,18.60
2023-05-16T01:59:14.059Z,18.60
2023-05-16T02:02:08.326Z,18.70
2023-05-16T02:05:02.509Z,18.70
2023-05-16T02:07:57.041Z,18.70
2023-05-16T02:10:51.283Z,18.80
2023-05-16T02:13:45.749Z,18.80
2023-05-16T02:16:40.307Z,18.90
2023-05-16T02:19:34.601Z,18.90
2023-05-16T02:22:28.770Z,19.00
2023-05-16T02:25:23.091Z,19.00
2023-05-16T02:28:17.250Z,19.10
2023-05-16T02:31:11.642Z,19.20
2023-05-16T02:34:06.266Z,19.30
2023-05-16T02:37:00.570Z,19.40
2023-05-16T02:39:54.835Z,19.40
2023-05-16T02:42:49.122Z,19.30
2023-05-16T02:45:43.324Z,19.20
2023-05-16T02:48:37.491Z,19.10
2023-05-16T02:51:32.005Z,19.10
2023-05-16T02:54:26.167Z,19.10
2023-05-16T02:57:20.342Z,19.00
2023-05-16T03:00:17.104Z,18.90
2023-05-16T03:03:12.690Z,18.90
2023-05-16T03:06:07.498Z,18.90
2023-05-16T03:09:01.708Z,18.80
2023-05-16T03:11:55.849Z,18.90
2023-05-16T03:14:49.961Z,18.90
2023-05-16T03:17:44.227Z,18.90
2023-05-16T03:20:38.398Z,19.00
2023-05-16T03:23:32.668Z,18.90
2023-05-16T03:26:30.025Z,18.90
2023-05-16T03:29:23.875Z,18.90
2023-05-16T03:32:18.753Z,18.80
2023-05-16T03:35:14.413Z,18.80
2023-05-16T03:38:08.930Z,18.70
2023-05-16T03:41:03.650Z,18.60
2023-05-16T03:43:57.975Z,18.60
2023-05-16T03:46:52.757Z,18.60
2023-05-16T03:49:46.916Z,18.60
2023-05-16T03:52:41.165Z,18.70
2023-05-16T03:55:35.424Z,18.70
2023-05-16T03:58:29.640Z,18.80
2023-05-16T04:01:23.820Z,18.80
2023-05-16T04:04:17.993Z,18.80
2023-05-16T04:07:12.149Z,18.90
2023-05-16T04:10:07.672Z,18.90
2023-05-16T04:13:01.897Z,18.90
2023-05-16T04:15:56.099Z,19.00
2023-05-16T04:18:50.473Z,19.00
2023-05-16T04:21:44.695Z,19.00
2023-05-16T04:24:38.880Z,19.10
2023-05-16T04:27:33.148Z,19.10
2023-05-16T04:30:28.028Z,19.20
2023-05-16T04:33:22.308Z,19.30
2023-05-16T04:36:16.491Z,19.10
2023-05-16T04:39:11.154Z,19.10
2023-05-16T04:42:05.744Z,19.00
2023-05-16T04:45:00.254Z,19.00
2023-05-16T04:47:54.504Z,19.00
2023-05-16T04:50:48.754Z,19.00
2023-05-16T04:53:42.907Z,18.90
2023-05-16T04:56:37.222Z,18.90
2023-05-16T04:59:31.516Z,19.00
2023-05-16T05:02:25.918Z,19.00
2023-05-16T05:05:20.455Z,19.00
2023-05-16T05:08:14.849Z,19.00
2023-05-16T05:11:09.102Z,19.10
2023-05-16T05:14:03.531Z,19.10
2023-05-16T05:16:57.799Z,19.10
2023-05-16T05:19:51.969Z,19.00
2023-05-16T05:22:46.198Z,18.90
2023-05-16T05:25:42.353Z,19.00
2023-05-16T05:28:36.597Z,19.10
2023-05-16T05:31:31.014Z,19.10
2023-05-16T05:34:25.254Z,19.10
2023-05-16T05:37:19.663Z,19.20
2023-05-16T05:40:14.115Z,19.20
2023-05-16T05:43:08.316Z,19.20
2023-05-16T05:46:02.744Z,19.30
2023-05-16T05:48:57.326Z,19.30
2023-05-16T05:51:53.423Z,19.30
2023-05-16T05:54:48.501Z,19.30
2023-05-16T05:57:42.941Z,19.30
2023-05-16T06:00:37.638Z,19.10
2023-05-16T06:03:32.268Z,19.00
2023-05-16T06:06:26.603Z,18.90
2023-05-16T06:09:20.784Z,18.80
2023-05-16T06:12:15.011Z,18.70
2023-05-16T06:15:10.091Z,18.60
2023-05-16T06:18:04.621Z,18.50
2023-05-16T06:20:59.015Z,18.50
2023-05-16T06:23:53.650Z,18.50
2023-05-16T06:26:51.156Z,18.60
2023-05-16T06:29:45.340Z,18.70
2023-05-16T06:32:41.517Z,18.60
2023-05-16T06:35:36.201Z,18.50
2023-05-16T06:38:31.014Z,18.50
2023-05-16T06:41:25.295Z,18.50
2023-05-16T06:44:22.168Z,18.60
2023-05-16T06:47:16.666Z,18.70
2023-05-16T06:50:12.169Z,18.70
2023-05-16T06:53:08.540Z,18.80
2023-05-16T06:56:03.186Z,18.80
2023-05-16T06:58:57.637Z,18.80
2023-05-16T07:01:52.469Z,18.80
2023-05-16T07:04:49.869Z,18.80
2023-05-16T07:07:44.440Z,18.80
2023-05-16T07:10:38.640Z,18.70
2023-05-16T07:13:35.062Z,18.70
2023-05-16T07:16:29.823Z,18.60
2023-05-16T07:19:24.141Z,18.50
2023-05-16T07:22:18.592Z,18.50
2023-05-16T07:25:17.150Z,18.40
2023-05-16T07:28:12.256Z,18.30
2023-05-16T07:31:08.065Z,18.20
2023-05-16T07:34:02.377Z,18.10
2023-05-16T07:36:56.813Z,18.00
2023-05-16T07:39:51.225Z,18.00
2023-05-16T07:42:46.070Z,17.90
2023-05-16T07:45:40.636Z,17.90
2023-05-16T07:48:36.227Z,17.80
2023-05-16T07:51:30.653Z,17.80
2023-05-16T07:54:24.958Z,17.80
2023-05-16T07:57:19.810Z,17.80
2023-05-16T08:00:14.978Z,17.90
2023-05-16T08:03:09.418Z,17.90
2023-05-16T08:06:04.008Z,17.80
2023-05-16T08:08:58.520Z,17.90
2023-05-16T08:11:53.042Z,17.80
2023-05-16T08:14:49.056Z,17.60
2023-05-16T08:17:43.876Z,17.50
2023-05-16T08:20:41.357Z,17.50
2023-05-16T08:23:35.734Z,17.50
2023-05-16T08:26:30.058Z,17.50
2023-05-16T08:29:24.239Z,17.50
2023-05-16T08:32:18.482Z,17.50
2023-05-16T08:35:14.223Z,17.50
2023-05-16T08:38:08.498Z,17.60
2023-05-16T08:41:02.869Z,17.70
2023-05-16T08:43:57.474Z,17.70
2023-05-16T08:46:56.404Z,17.70
2023-05-16T08:49:53.260Z,17.70
2023-05-16T08:52:52.918Z,17.70
2023-05-16T08:55:49.810Z,17.60
2023-05-16T08:58:44.231Z,17.60
2023-05-16T09:01:38.668Z,17.60
2023-05-16T09:04:33.615Z,17.50
2023-05-16T09:07:27.936Z,17.50
2023-05-16T09:10:22.964Z,17.50
2023-05-16T09:13:17.277Z,17.50
2023-05-16T09:16:19.415Z,17.50
2023-05-16T09:19:15.547Z,17.50
2023-05-16T09:22:13.238Z,17.50
2023-05-16T09:25:12.732Z,17.50
2023-05-16T09:28:13.923Z,17.60
2023-05-16T09:31:27.878Z,17.50
2023-05-16T09:34:25.888Z,17.40
2023-05-16T09:37:21.002Z,17.40
2023-05-16T09:40:15.931Z,17.40
2023-05-16T09:43:10.415Z,17.40
2023-05-16T09:46:04.827Z,17.50
2023-05-16T09:48:59.277Z,17.50
2023-05-16T09:51:53.671Z,17.50
2023-05-16T09:54:52.863Z,17.60
2023-05-16T09:57:49.030Z,17.50
2023-05-16T10:00:43.584Z,17.50
2023-05-16T10:03:39.951Z,17.50
2023-05-16T10:06:34.648Z,17.40
2023-05-16T10:09:30.616Z,17.30
2023-05-16T10:12:35.305Z,17.30
2023-05-16T10:15:30.660Z,17.20
2023-05-16T10:18:31.359Z,17.20
2023-05-16T10:21:27.531Z,17.20
2023-05-16T10:24:31.002Z,17.00
2023-05-16T10:27:26.038Z,16.90
2023-05-16T10:30:21.065Z,17.00
2023-05-16T10:33:17.992Z,17.00
2023-05-16T10:36:12.653Z,17.00
2023-05-16T10:39:08.758Z,17.00
2023-05-16T10:42:03.200Z,16.90
2023-05-16T10:45:05.587Z,16.70
2023-05-16T10:48:02.287Z,16.60
2023-05-16T10:50:56.774Z,16.50
2023-05-16T10:53:55.306Z,16.50
2023-05-16T10:56:58.497Z,16.50
2023-05-16T10:59:54.569Z,16.40
2023-05-16T11:02:50.043Z,16.40
2023-05-16T11:05:45.495Z,16.40
2023-05-16T11:08:59.266Z,16.30
2023-05-16T11:12:02.489Z,16.20
2023-05-16T11:14:56.784Z,16.30
2023-05-16T11:17:51.148Z,16.20
2023-05-16T11:20:45.540Z,16.10
2023-05-16T11:23:39.815Z,16.00
2023-05-16T11:26:34.667Z,16.00
2023-05-16T11:29:33.034Z,15.90
2023-05-16T11:32:27.397Z,15.90
2023-05-16T11:35:22.699Z,15.80
2023-05-16T11:38:17.830Z,15.80
2023-05-16T11:41:12.690Z,15.80
2023-05-16T11:44:07.954Z,15.80
2023-05-16T11:47:04.500Z,15.80
2023-05-16T11:50:00.370Z,15.80
2023-05-16T11:52:58.783Z,15.90
2023-05-16T11:55:55.651Z,15.80
2023-05-16T11:58:49.934Z,15.80
2023-05-16T12:01:44.251Z,15.80
2023-05-16T12:04:39.759Z,15.80
2023-05-16T12:07:34.086Z,15.80
2023-05-16T12:10:28.605Z,15.70
2023-05-16T12:13:24.880Z,15.80
2023-05-16T12:16:20.256Z,15.80
2023-05-16T12:19:16.508Z,15.80
2023-05-16T12:22:22.272Z,15.70
2023-05-16T12:25:30.411Z,15.70
2023-05-16T12:28:24.948Z,15.60
2023-05-16T12:31:31.879Z,15.70
2023-05-16T12:34:31.293Z,15.70
2023-05-16T12:37:25.543Z,15.80
2023-05-16T12:40:21.805Z,15.80
2023-05-16T12:43:17.650Z,15.80
2023-05-16T12:46:15.835Z,15.80
2023-05-16T12:49:10.718Z,15.80
2023-05-16T12:52:06.921Z,15.70
2023-05-16T12:55:01.152Z,15.70
2023-05-16T12:57:59.489Z,15.70
2023-05-16T13:00:53.676Z,15.60
2023-05-16T13:03:47.981Z,15.60
2023-05-16T13:06:57.734Z,15.60
2023-05-16T13:09:53.119Z,15.60
2023-05-16T13:12:48.510Z,15.70
2023-05-16T13:15:43.673Z,15.70
2023-05-16T13:18:38.188Z,15.70
2023-05-16T13:21:33.368Z,15.70
2023-05-16T13:24:27.795Z,15.70
2023-05-16T13:27:22.174Z,15.80
2023-05-16T13:30:16.775Z,15.80
2023-05-16T13:33:11.208Z,15.80
2023-05-16T13:36:06.761Z,15.80
2023-05-16T13:39:02.593Z,15.70
2023-05-16T13:41:57.110Z,15.70
2023-05-16T13:44:51.668Z,15.70
2023-05-16T13:47:47.466Z,15.70
2023-05-16T13:50:44.204Z,15.70
2023-05-16T13:53:40.480Z,15.70
2023-05-16T13:56:34.701Z,15.80
2023-05-16T13:59:55.279Z,15.90
2023-05-16T14:02:44.363Z,16.00
2023-05-16T14:05:38.563Z,16.00
2023-05-16T14:08:32.812Z,16.00
2023-05-16T14:11:29.413Z,16.00
2023-05-16T14:14:23.830Z,16.00
2023-05-16T14:17:18.267Z,16.00
2023-05-16T14:20:13.088Z,16.10
2023-05-16T14:23:07.401Z,16.20
2023-05-16T14:26:02.256Z,16.20
2023-05-16T14:28:57.388Z,16.30
2023-05-16T14:31:51.865Z,16.30
2023-05-16T14:34:46.150Z,16.30
2023-05-16T14:37:40.627Z,16.20
2023-05-16T14:40:35.496Z,16.10
2023-05-16T14:43:29.848Z,16.00
2023-05-16T14:46:24.187Z,15.90
2023-05-16T14:49:18.491Z,15.90
2023-05-16T14:52:12.640Z,16.00
2023-05-16T14:55:07.450Z,16.10
2023-05-16T14:58:01.756Z,16.10
2023-05-16T15:00:56.038Z,16.20
2023-05-16T15:03:55.169Z,16.30
2023-05-16T15:06:50.425Z,16.30
2023-05-16T15:09:44.626Z,16.30
2023-05-16T15:12:42.090Z,16.30
2023-05-16T15:15:36.658Z,16.40
2023-05-16T15:18:30.975Z,16.40
2023-05-16T15:21:25.267Z,16.40
2023-05-16T15:24:19.751Z,16.40
2023-05-16T15:27:14.295Z,16.50
2023-05-16T15:30:09.740Z,16.50
2023-05-16T15:33:04.717Z,16.40
2023-05-16T15:35:59.319Z,16.40
2023-05-16T15:38:54.238Z,16.50
2023-05-16T15:42:08.451Z,16.40
2023-05-16T15:45:02.671Z,16.40
2023-05-16T15:47:57.011Z,16.50
2023-05-16T15:50:51.227Z,16.40
2023-05-16T15:53:46.203Z,16.40
2023-05-16T15:56:40.462Z,16.40
2023-05-16T15:59:35.229Z,16.40
2023-05-16T16:02:29.508Z,16.40
2023-05-16T16:05:24.037Z,16.40
2023-05-16T16:08:23.378Z,16.40
2023-05-16T16:11:17.616Z,16.30
2023-05-16T16:14:12.234Z,16.30
2023-05-16T16:17:06.575Z,16.30
2023-05-16T16:20:01.030Z,16.30
2023-05-16T16:22:55.671Z,16.30
2023-05-16T16:25:49.872Z,16.30
2023-05-16T16:28:44.284Z,16.30
2023-05-16T16:31:38.585Z,16.30
2023-05-16T16:34:32.819Z,16.30
2023-05-16T16:37:27.075Z,16.30
2023-05-16T16:40:21.454Z,16.30
2023-05-16T16:43:17.245Z,16.20
2023-05-16T16:46:11.735Z,16.20
2023-05-16T16:49:05.974Z,16.20
2023-05-16T16:52:00.215Z,16.20
2023-05-16T16:54:54.542Z,16.20
2023-05-16T16:57:48.811Z,16.20
2023-05-16T17:00:43.134Z,16.20
2023-05-16T17:03:37.395Z,16.20
2023-05-16T17:06:32.011Z,16.20
2023-05-16T17:09:28.246Z,16.20
2023-05-16T17:12:23.326Z,16.20
2023-05-16T17:15:20.475Z,16.20
2023-05-16T17:18:15.857Z,16.10
2023-05-16T17:21:13.712Z,16.20
2023-05-16T17:24:09.049Z,16.10
2023-05-16T17:27:03.486Z,16.20
2023-05-16T17:29:58.564Z,16.10
2023-05-16T17:32:52.760Z,16.10
2023-05-16T17:35:47.096Z,16.10
2023-05-16T17:42:48.593Z,16.10
2023-05-16T17:45:43.428Z,16.00
2023-05-16T17:48:38.266Z,16.00
2023-05-16T17:51:48.773Z,15.90
2023-05-16T17:54:43.140Z,16.00
2023-05-16T17:57:37.819Z,15.90
2023-05-16T18:00:32.802Z,15.90
2023-05-16T18:03:27.074Z,15.90
2023-05-16T18:06:21.481Z,15.90
2023-05-16T18:09:16.337Z,15.90
2023-05-16T18:12:11.363Z,15.80
2023-05-16T18:15:07.255Z,15.80
2023-05-16T18:18:01.448Z,15.70
2023-05-16T18:20:55.740Z,15.70
2023-05-16T18:23:50.256Z,15.70
2023-05-16T18:26:45.585Z,15.60
2023-05-16T18:29:39.931Z,15.60
2023-05-16T18:32:34.580Z,15.50
2023-05-16T18:35:29.727Z,15.50
2023-05-16T18:38:32.074Z,15.60
2023-05-16T18:41:27.358Z,15.70
2023-05-16T18:44:21.990Z,15.70
2023-05-16T18:47:17.015Z,15.70
2023-05-16T18:50:11.996Z,15.70
2023-05-16T18:53:06.231Z,15.70
2023-05-16T18:56:00.827Z,15.70
2023-05-16T18:58:54.978Z,15.70
2023-05-16T19:01:49.261Z,15.70
2023-05-16T19:04:43.574Z,15.70
2023-05-16T19:07:38.092Z,15.70
2023-05-16T19:10:33.695Z,15.70
2023-05-16T19:13:27.946Z,15.70
2023-05-16T19:16:22.159Z,15.70
2023-05-16T19:19:16.547Z,15.70
2023-05-16T19:22:10.789Z,15.70
2023-05-16T19:25:05.950Z,15.70
2023-05-16T19:28:00.598Z,15.60
2023-05-16T19:30:55.163Z,15.50
2023-05-16T19:33:49.855Z,15.50
2023-05-16T19:36:44.050Z,15.50
2023-05-16T19:39:38.382Z,15.40
2023-05-16T19:42:32.736Z,15.40
2023-05-16T19:45:27.058Z,15.30
2023-05-16T19:48:21.503Z,15.20
2023-05-16T19:51:16.661Z,15.10
2023-05-16T19:54:13.886Z,15.00
2023-05-16T19:57:08.219Z,14.90
2023-05-16T20:00:02.416Z,14.90
2023-05-16T20:02:56.868Z,14.80
2023-05-16T20:05:51.165Z,14.80
2023-05-16T20:08:45.368Z,14.70
2023-05-16T20:11:39.809Z,14.70
2023-05-16T20:14:34.155Z,14.60
2023-05-16T20:17:28.741Z,14.60
2023-05-16T20:20:23.109Z,14.50
2023-05-16T20:23:17.476Z,14.50
2023-05-16T20:26:15.947Z,14.50
2023-05-16T20:29:10.194Z,14.50
2023-05-16T20:32:07.252Z,14.50
2023-05-16T20:35:02.457Z,14.50
2023-05-16T20:37:56.775Z,14.40
2023-05-16T20:40:50.980Z,14.50
2023-05-16T20:43:45.382Z,14.50
2023-05-16T20:46:41.693Z,14.50
2023-05-16T20:49:40.442Z,14.40
2023-05-16T20:52:34.908Z,14.40
2023-05-16T20:55:29.350Z,14.40
2023-05-16T20:58:23.823Z,14.50
2023-05-16T21:01:18.043Z,14.60
2023-05-16T21:04:12.278Z,14.60
2023-05-16T21:07:08.440Z,14.60
2023-05-16T21:10:02.972Z,14.60
2023-05-16T21:12:57.396Z,14.70
2023-05-16T21:15:51.834Z,14.80
2023-05-16T21:18:46.345Z,14.70
2023-05-16T21:21:40.686Z,14.70
2023-05-16T21:24:38.662Z,14.70
2023-05-16T21:27:33.563Z,14.70
2023-05-16T21:30:27.871Z,14.70
2023-05-16T21:33:22.277Z,14.70
2023-05-16T21:36:16.576Z,14.80
2023-05-16T21:39:11.026Z,14.80
2023-05-16T21:42:05.374Z,14.80
2023-05-16T21:44:59.633Z,14.90
2023-05-16T21:47:54.033Z,14.90
2023-05-16T21:50:48.476Z,14.80
2023-05-16T21:53:42.799Z,15.00
2023-05-16T21:56:37.097Z,14.90
2023-05-16T21:59:31.323Z,15.00
2023-05-16T22:02:25.633Z,15.00
2023-05-16T22:05:20.668Z,15.00
2023-05-16T22:08:15.223Z,15.10
2023-05-16T22:11:09.489Z,15.10
2023-05-16T22:14:03.776Z,15.10
2023-05-16T22:16:58.110Z,15.10
2023-05-16T22:19:52.457Z,15.20
2023-05-16T22:22:46.709Z,15.20
2023-05-16T22:25:40.872Z,15.20
2023-05-16T22:28:35.328Z,15.20
2023-05-16T22:31:29.628Z,15.20
2023-05-16T22:34:23.831Z,15.20
2023-05-16T22:37:18.016Z,15.20
2023-05-16T22:40:12.768Z,15.20
2023-05-16T22:43:07.839Z,15.20
2023-05-16T22:46:03.321Z,15.20
2023-05-16T22:48:57.798Z,15.20
2023-05-16T22:51:52.224Z,15.10
2023-05-16T22:54:46.697Z,15.10
2023-05-16T22:57:40.909Z,15.10
2023-05-16T23:00:35.163Z,15.10
2023-05-16T23:03:30.325Z,15.20
2023-05-16T23:06:24.823Z,15.20
2023-05-16T23:09:19.114Z,15.30
2023-05-16T23:12:13.539Z,15.30
2023-05-16T23:15:11.295Z,15.40
2023-05-16T23:18:06.034Z,15.40
2023-05-16T23:21:00.473Z,15.50
2023-05-16T23:23:54.842Z,15.50
2023-05-16T23:26:49.190Z,15.60
2023-05-16T23:29:43.454Z,15.70
2023-05-16T23:32:37.770Z,15.80
2023-05-16T23:35:32.063Z,15.80
2023-05-16T23:38:26.967Z,15.90
2023-05-16T23:41:21.183Z,15.90
2023-05-16T23:44:15.596Z,15.90
2023-05-16T23:47:10.558Z,15.90
2023-05-16T23:50:05.504Z,16.00
2023-05-16T23:53:00.003Z,16.10
2023-05-16T23:55:54.316Z,16.10
2023-05-16T23:58:48.694Z,16.10
